createdAt,value
2023-04-30T00:00:32.186Z,12.03
2023-04-30T00:02:33.822Z,11.73
2023-04-30T00:04:35.441Z,11.54
2023-04-30T00:06:37.118Z,11.41
2023-04-30T00:08:38.705Z,11.41
2023-04-30T00:10:40.313Z,11.40
2023-04-30T00:12:41.996Z,11.55
2023-04-30T00:14:43.596Z,11.70
2023-04-30T00:16:45.238Z,11.89
2023-04-30T00:18:46.850Z,12.04
2023-04-30T00:20:48.448Z,12.13
2023-04-30T00:22:50.036Z,12.22
2023-04-30T00:24:51.989Z,12.29
2023-04-30T00:26:53.611Z,12.34
2023-04-30T00:28:55.366Z,12.37
2023-04-30T00:30:57.116Z,12.41
2023-04-30T00:32:58.715Z,12.42
2023-04-30T00:35:00.280Z,12.45
2023-04-30T00:37:01.898Z,12.49
2023-04-30T00:39:04.054Z,12.49
2023-04-30T00:41:05.908Z,12.50
2023-04-30T00:43:07.458Z,12.55
2023-04-30T00:45:09.487Z,12.56
2023-04-30T00:47:11.134Z,12.54
2023-04-30T00:49:12.856Z,12.54
2023-04-30T00:51:14.562Z,12.54
2023-04-30T00:53:17.016Z,12.54
2023-04-30T00:55:18.793Z,12.49
2023-04-30T00:57:20.745Z,12.45
2023-04-30T00:59:22.752Z,12.41
2023-04-30T01:01:25.886Z,12.38
2023-04-30T01:03:28.886Z,12.38
2023-04-30T01:05:30.930Z,12.36
2023-04-30T01:07:33.059Z,12.33
2023-04-30T01:09:34.731Z,12.26
2023-04-30T01:11:47.914Z,12.15
2023-04-30T01:14:08.197Z,12.07
2023-04-30T01:16:16.746Z,12.01
2023-04-30T01:19:12.001Z,12.04
2023-04-30T01:21:15.671Z,12.06
2023-04-30T01:23:32.170Z,12.07
2023-04-30T01:25:39.733Z,12.05
2023-04-30T01:28:07.133Z,12.03
2023-04-30T01:30:09.251Z,12.02
2023-04-30T01:32:11.524Z,12.02
2023-04-30T01:34:13.098Z,12.02
2023-04-30T01:36:52.562Z,11.98
2023-04-30T01:39:07.131Z,11.97
2023-04-30T01:41:41.526Z,11.97
2023-04-30T01:43:50.539Z,11.95
2023-04-30T01:46:07.398Z,11.95
2023-04-30T01:48:21.190Z,11.89
2023-04-30T01:50:39.851Z,11.85
2023-04-30T01:52:50.955Z,11.83
2023-04-30T01:54:56.645Z,11.80
2023-04-30T01:57:06.936Z,11.80
2023-04-30T01:59:09.233Z,11.79
2023-04-30T02:01:28.644Z,11.78
2023-04-30T02:03:30.530Z,11.78
2023-04-30T02:05:32.272Z,11.76
2023-04-30T02:07:39.641Z,11.69
2023-04-30T02:09:41.279Z,11.65
2023-04-30T02:11:42.872Z,11.69
2023-04-30T02:13:44.469Z,11.75
2023-04-30T02:15:46.080Z,11.73
2023-04-30T02:17:48.059Z,11.76
2023-04-30T02:19:49.619Z,11.75
2023-04-30T02:21:51.328Z,11.77
2023-04-30T02:23:53.222Z,11.79
2023-04-30T02:25:54.819Z,11.79
2023-04-30T02:27:56.344Z,11.79
2023-04-30T02:29:58.542Z,11.80
2023-04-30T02:32:00.874Z,11.81
2023-04-30T02:34:02.443Z,11.80
2023-04-30T02:36:04.426Z,11.83
2023-04-30T02:38:05.972Z,11.86
2023-04-30T02:40:08.250Z,11.86
2023-04-30T02:42:10.054Z,11.88
2023-04-30T02:44:12.205Z,11.89
2023-04-30T02:46:13.836Z,11.86
2023-04-30T02:48:15.931Z,11.84
2023-04-30T02:50:17.531Z,11.86
2023-04-30T02:52:19.135Z,11.86
2023-04-30T02:54:21.076Z,11.88
2023-04-30T02:56:22.740Z,11.87
2023-04-30T02:58:24.305Z,11.90
2023-04-30T03:00:26.493Z,11.87
2023-04-30T03:02:28.095Z,11.86
2023-04-30T03:04:29.702Z,11.82
2023-04-30T03:06:32.221Z,11.82
2023-04-30T03:08:33.864Z,11.86
2023-04-30T03:10:35.512Z,11.88
2023-04-30T03:12:37.214Z,11.89
2023-04-30T03:14:38.801Z,11.83
2023-04-30T03:16:41.553Z,11.86
2023-04-30T03:18:43.626Z,11.88
2023-04-30T03:20:45.302Z,11.93
2023-04-30T03:22:46.920Z,11.88
2023-04-30T03:24:48.469Z,11.91
2023-04-30T03:26:50.008Z,11.85
2023-04-30T03:28:51.608Z,11.82
2023-04-30T03:30:53.199Z,11.82
2023-04-30T03:32:54.797Z,11.81
2023-04-30T03:34:56.499Z,11.89
2023-04-30T03:36:58.538Z,11.92
2023-04-30T03:39:00.293Z,11.93
2023-04-30T03:41:01.873Z,11.93
2023-04-30T03:43:03.491Z,11.97
2023-04-30T03:45:05.477Z,11.98
2023-04-30T03:47:07.140Z,11.93
2023-04-30T03:49:08.850Z,11.95
2023-04-30T03:51:10.920Z,12.00
2023-04-30T03:53:12.512Z,12.05
2023-04-30T03:55:14.097Z,12.08
2023-04-30T03:57:15.877Z,12.16
2023-04-30T03:59:17.869Z,12.17
2023-04-30T04:01:19.497Z,12.17
2023-04-30T04:03:21.238Z,12.19
2023-04-30T04:05:22.842Z,12.24
2023-04-30T04:07:24.483Z,12.20
2023-04-30T04:09:26.261Z,12.05
2023-04-30T04:11:27.914Z,11.99
2023-04-30T04:13:29.499Z,11.99
2023-04-30T04:15:31.284Z,11.99
2023-04-30T04:17:33.048Z,11.97
2023-04-30T04:19:34.722Z,11.98
2023-04-30T04:21:36.874Z,11.79
2023-04-30T04:23:38.550Z,11.77
2023-04-30T04:25:41.725Z,11.74
2023-04-30T04:27:43.263Z,11.65
2023-04-30T04:29:44.824Z,11.57
2023-04-30T04:31:49.093Z,11.51
2023-04-30T04:33:58.142Z,11.36
2023-04-30T04:35:59.942Z,11.39
2023-04-30T04:38:01.562Z,11.48
2023-04-30T04:40:05.072Z,11.52
2023-04-30T04:42:06.715Z,11.35
2023-04-30T04:44:08.438Z,11.12
2023-04-30T04:46:12.971Z,10.79
2023-04-30T04:48:15.948Z,10.77
2023-04-30T04:50:18.198Z,10.94
2023-04-30T04:52:19.733Z,11.12
2023-04-30T04:54:21.395Z,11.31
2023-04-30T04:56:22.998Z,11.40
2023-04-30T04:58:24.664Z,11.43
2023-04-30T05:00:26.258Z,11.52
2023-04-30T05:02:27.964Z,11.60
2023-04-30T05:04:30.503Z,11.65
2023-04-30T05:06:32.256Z,11.68
2023-04-30T05:08:33.956Z,11.60
2023-04-30T05:10:35.578Z,11.59
2023-04-30T05:12:37.186Z,11.63
2023-04-30T05:14:38.837Z,11.52
2023-04-30T05:16:40.634Z,11.44
2023-04-30T05:18:42.282Z,11.44
2023-04-30T05:20:43.969Z,11.44
2023-04-30T05:22:45.543Z,11.44
2023-04-30T05:24:47.166Z,11.41
2023-04-30T05:26:48.813Z,11.44
2023-04-30T05:28:52.455Z,11.50
2023-04-30T05:30:54.194Z,11.47
2023-04-30T05:32:56.948Z,11.47
2023-04-30T05:34:58.585Z,11.47
2023-04-30T05:37:01.657Z,11.53
2023-04-30T05:39:03.308Z,11.58
2023-04-30T05:41:05.149Z,11.60
2023-04-30T05:43:06.811Z,11.72
2023-04-30T05:45:08.793Z,11.90
2023-04-30T05:47:10.571Z,12.11
2023-04-30T05:49:12.177Z,12.34
2023-04-30T05:51:14.051Z,12.47
2023-04-30T05:53:15.702Z,12.60
2023-04-30T05:55:17.397Z,12.73
2023-04-30T05:57:19.039Z,12.78
2023-04-30T05:59:20.623Z,12.85
2023-04-30T06:01:23.336Z,12.84
2023-04-30T06:03:25.160Z,12.89
2023-04-30T06:05:27.075Z,12.87
2023-04-30T06:07:28.814Z,12.89
2023-04-30T06:09:30.478Z,12.94
2023-04-30T06:11:32.209Z,12.90
2023-04-30T06:13:33.913Z,12.85
2023-04-30T06:15:35.696Z,12.74
2023-04-30T06:17:37.568Z,12.63
2023-04-30T06:19:39.301Z,12.45
2023-04-30T06:21:41.001Z,12.53
2023-04-30T06:23:42.562Z,12.65
2023-04-30T06:25:44.194Z,12.80
2023-04-30T06:27:46.201Z,12.87
2023-04-30T06:29:47.817Z,12.88
2023-04-30T06:31:49.508Z,12.86
2023-04-30T06:33:51.254Z,12.72
2023-04-30T06:35:55.464Z,12.54
2023-04-30T06:37:57.116Z,12.63
2023-04-30T06:39:58.695Z,12.57
2023-04-30T06:42:00.418Z,12.62
2023-04-30T06:44:01.992Z,12.63
2023-04-30T06:46:04.069Z,12.79
2023-04-30T06:48:05.792Z,13.02
2023-04-30T06:50:07.722Z,13.32
2023-04-30T06:52:09.657Z,13.60
2023-04-30T06:54:11.287Z,13.80
2023-04-30T06:56:13.257Z,13.99
2023-04-30T06:58:15.026Z,14.13
2023-04-30T07:00:16.858Z,14.21
2023-04-30T07:02:21.210Z,14.27
2023-04-30T07:04:24.661Z,14.15
2023-04-30T07:06:26.847Z,14.19
2023-04-30T07:08:28.488Z,14.34
2023-04-30T07:10:31.266Z,14.49
2023-04-30T07:12:32.884Z,14.47
2023-04-30T07:14:34.477Z,14.39
2023-04-30T07:16:36.110Z,14.25
2023-04-30T07:18:38.098Z,14.30
2023-04-30T07:20:39.776Z,14.38
2023-04-30T07:22:46.197Z,14.46
2023-04-30T07:24:47.863Z,14.58
2023-04-30T07:26:49.457Z,14.69
2023-04-30T07:28:51.136Z,14.69
2023-04-30T07:30:53.221Z,14.65
2023-04-30T07:32:54.918Z,14.67
2023-04-30T07:34:56.609Z,14.59
2023-04-30T07:36:58.233Z,14.64
2023-04-30T07:38:59.893Z,14.67
2023-04-30T07:41:02.279Z,14.50
2023-04-30T07:43:05.213Z,14.56
2023-04-30T07:45:07.284Z,14.52
2023-04-30T07:47:10.032Z,14.59
2023-04-30T07:49:11.676Z,14.39
2023-04-30T07:51:13.236Z,14.08
2023-04-30T07:53:14.831Z,14.10
2023-04-30T07:55:16.680Z,14.36
2023-04-30T07:57:18.262Z,14.53
2023-04-30T07:59:21.438Z,14.69
2023-04-30T08:01:23.091Z,14.79
2023-04-30T08:03:24.769Z,14.87
2023-04-30T08:05:27.306Z,15.01
2023-04-30T08:07:28.987Z,15.09
2023-04-30T08:09:31.370Z,15.10
2023-04-30T08:11:33.000Z,15.14
2023-04-30T08:13:34.722Z,15.20
2023-04-30T08:15:37.799Z,15.10
2023-04-30T08:17:39.388Z,15.20
2023-04-30T08:19:41.061Z,15.19
2023-04-30T08:21:42.680Z,15.19
2023-04-30T08:23:44.437Z,15.18
2023-04-30T08:25:46.132Z,15.28
2023-04-30T08:27:47.687Z,15.30
2023-04-30T08:29:49.372Z,15.02
2023-04-30T08:31:51.061Z,15.20
2023-04-30T08:33:52.720Z,15.31
2023-04-30T08:35:54.580Z,15.41
2023-04-30T08:37:56.232Z,15.50
2023-04-30T08:39:58.349Z,15.62
2023-04-30T08:42:03.732Z,15.69
2023-04-30T08:44:08.216Z,15.83
2023-04-30T08:46:13.444Z,15.80
2023-04-30T08:48:16.641Z,15.87
2023-04-30T08:50:18.471Z,16.04
2023-04-30T08:52:20.599Z,16.28
2023-04-30T08:54:23.138Z,16.56
2023-04-30T08:56:25.710Z,15.93
2023-04-30T08:58:27.330Z,15.94
2023-04-30T09:00:28.994Z,16.19
2023-04-30T09:02:32.987Z,16.34
2023-04-30T09:04:34.631Z,16.45
2023-04-30T09:06:36.274Z,16.78
2023-04-30T09:08:50.752Z,16.91
2023-04-30T09:10:52.394Z,16.67
2023-04-30T09:13:07.700Z,16.49
2023-04-30T09:15:09.814Z,16.61
2023-04-30T09:17:22.153Z,16.98
2023-04-30T09:19:25.445Z,16.91
2023-04-30T09:21:35.146Z,17.23
2023-04-30T09:23:36.824Z,17.48
2023-04-30T09:25:42.625Z,17.72
2023-04-30T09:27:45.311Z,17.58
2023-04-30T09:29:47.173Z,17.87
2023-04-30T09:31:48.893Z,18.16
2023-04-30T09:33:51.053Z,18.04
2023-04-30T09:35:52.686Z,18.17
2023-04-30T09:37:54.337Z,18.47
2023-04-30T09:39:57.140Z,18.46
2023-04-30T09:42:11.558Z,18.31
2023-04-30T09:44:29.000Z,18.57
2023-04-30T09:46:32.421Z,18.91
2023-04-30T09:48:34.129Z,18.48
2023-04-30T09:50:41.887Z,17.94
2023-04-30T09:52:54.062Z,18.27
2023-04-30T09:54:55.662Z,18.38
2023-04-30T09:56:59.351Z,18.57
2023-04-30T09:59:00.808Z,18.92
2023-04-30T10:01:03.581Z,18.88
2023-04-30T10:03:12.890Z,18.19
2023-04-30T10:05:14.651Z,18.10
2023-04-30T10:07:22.228Z,17.84
2023-04-30T10:09:30.896Z,17.73
2023-04-30T10:11:34.414Z,17.80
2023-04-30T10:13:44.835Z,17.79
2023-04-30T10:15:51.927Z,17.79
2023-04-30T10:17:59.851Z,17.51
2023-04-30T10:20:05.876Z,17.52
2023-04-30T10:22:08.076Z,17.47
2023-04-30T10:24:10.735Z,17.12
2023-04-30T10:26:12.898Z,16.66
2023-04-30T10:28:14.722Z,15.63
2023-04-30T10:30:16.473Z,14.98
2023-04-30T10:32:18.556Z,14.69
2023-04-30T10:34:33.505Z,14.27
2023-04-30T10:36:44.915Z,14.05
2023-04-30T10:38:48.417Z,14.38
2023-04-30T10:40:50.251Z,14.70
2023-04-30T10:42:54.724Z,15.06
2023-04-30T10:44:56.936Z,15.58
2023-04-30T10:47:02.577Z,15.97
2023-04-30T10:49:04.223Z,16.27
2023-04-30T10:51:06.291Z,16.54
2023-04-30T10:53:08.505Z,16.72
2023-04-30T10:55:10.705Z,16.83
2023-04-30T10:57:17.793Z,17.05
2023-04-30T10:59:20.158Z,17.27
2023-04-30T11:01:22.231Z,17.10
2023-04-30T11:03:25.152Z,16.74
2023-04-30T11:05:38.876Z,17.22
2023-04-30T11:07:50.582Z,17.59
2023-04-30T11:09:57.549Z,17.84
2023-04-30T11:12:03.987Z,18.00
2023-04-30T11:14:05.728Z,18.26
2023-04-30T11:16:07.480Z,18.54
2023-04-30T11:18:09.871Z,18.56
2023-04-30T11:20:19.267Z,17.75
2023-04-30T11:22:24.720Z,17.51
2023-04-30T11:24:51.993Z,17.10
2023-04-30T11:27:05.676Z,16.72
2023-04-30T11:29:07.585Z,16.95
2023-04-30T11:31:09.288Z,16.97
2023-04-30T11:33:11.932Z,17.24
2023-04-30T11:35:15.243Z,17.47
2023-04-30T11:37:22.005Z,17.33
2023-04-30T11:39:24.782Z,17.38
2023-04-30T11:41:27.486Z,17.38
2023-04-30T11:43:33.611Z,17.43
2023-04-30T11:45:35.459Z,17.35
2023-04-30T11:47:43.032Z,17.42
2023-04-30T11:49:44.713Z,17.61
2023-04-30T11:51:49.769Z,17.63
2023-04-30T11:53:53.475Z,17.35
2023-04-30T11:55:56.056Z,17.16
2023-04-30T11:57:59.469Z,17.55
2023-04-30T12:00:10.055Z,17.95
2023-04-30T12:02:16.095Z,18.24
2023-04-30T12:04:19.331Z,18.25
2023-04-30T12:06:25.303Z,18.26
2023-04-30T12:08:27.225Z,17.62
2023-04-30T12:10:28.848Z,17.13
2023-04-30T12:12:31.094Z,16.99
2023-04-30T12:14:34.919Z,17.03
2023-04-30T12:16:49.546Z,17.04
2023-04-30T12:18:52.826Z,17.06
2023-04-30T12:20:55.032Z,17.11
2023-04-30T12:22:57.837Z,17.05
2023-04-30T12:25:00.297Z,16.37
2023-04-30T12:27:02.448Z,15.75
2023-04-30T12:29:05.479Z,15.36
2023-04-30T12:31:07.325Z,15.44
2023-04-30T12:33:10.750Z,15.61
2023-04-30T12:35:17.056Z,15.53
2023-04-30T12:37:18.686Z,15.62
2023-04-30T12:39:20.418Z,15.79
2023-04-30T12:41:22.926Z,16.00
2023-04-30T12:43:24.488Z,16.08
2023-04-30T12:45:55.986Z,16.30
2023-04-30T12:47:57.702Z,16.25
2023-04-30T12:49:59.391Z,16.31
2023-04-30T12:52:02.751Z,16.50
2023-04-30T12:54:04.421Z,16.66
2023-04-30T12:56:16.011Z,16.84
2023-04-30T12:58:17.729Z,16.96
2023-04-30T13:00:19.350Z,17.09
2023-04-30T13:02:24.626Z,17.18
2023-04-30T13:04:26.952Z,17.24
2023-04-30T13:06:29.303Z,17.32
2023-04-30T13:08:32.612Z,17.39
2023-04-30T13:10:36.950Z,17.47
2023-04-30T13:12:38.630Z,17.44
2023-04-30T13:14:40.215Z,17.47
2023-04-30T13:16:42.017Z,17.52
2023-04-30T13:18:44.112Z,17.56
2023-04-30T13:20:45.837Z,17.47
2023-04-30T13:22:47.746Z,17.47
2023-04-30T13:24:49.572Z,17.46
2023-04-30T13:26:51.194Z,17.43
2023-04-30T13:28:52.831Z,17.41
2023-04-30T13:30:54.424Z,17.45
2023-04-30T13:32:56.207Z,17.51
2023-04-30T13:34:58.507Z,17.46
2023-04-30T13:37:00.406Z,17.53
2023-04-30T13:39:01.960Z,17.55
2023-04-30T13:41:03.649Z,17.56
2023-04-30T13:43:05.287Z,17.61
2023-04-30T13:45:07.564Z,17.65
2023-04-30T13:47:10.344Z,17.72
2023-04-30T13:49:12.014Z,17.78
2023-04-30T13:51:13.937Z,17.81
2023-04-30T13:53:16.174Z,17.82
2023-04-30T13:55:17.900Z,17.89
2023-04-30T13:57:19.499Z,17.88
2023-04-30T13:59:21.218Z,17.88
2023-04-30T14:01:22.946Z,17.56
2023-04-30T14:03:24.678Z,17.49
2023-04-30T14:05:26.893Z,17.50
2023-04-30T14:07:28.453Z,17.55
2023-04-30T14:09:30.395Z,17.60
2023-04-30T14:11:32.436Z,17.69
2023-04-30T14:13:34.298Z,17.86
2023-04-30T14:15:35.993Z,18.06
2023-04-30T14:17:37.837Z,18.15
2023-04-30T14:19:39.619Z,18.09
2023-04-30T14:21:41.213Z,18.04
2023-04-30T14:23:46.023Z,18.00
2023-04-30T14:25:47.756Z,18.06
2023-04-30T14:27:49.426Z,18.11
2023-04-30T14:29:51.544Z,18.07
2023-04-30T14:31:53.217Z,18.12
2023-04-30T14:33:55.319Z,18.21
2023-04-30T14:35:56.945Z,18.35
2023-04-30T14:37:58.586Z,18.44
2023-04-30T14:40:01.988Z,18.58
2023-04-30T14:42:04.140Z,18.91
2023-04-30T14:44:05.833Z,19.23
2023-04-30T14:46:07.594Z,19.52
2023-04-30T14:48:09.634Z,19.78
2023-04-30T14:50:11.250Z,19.99
2023-04-30T14:52:13.831Z,20.25
2023-04-30T14:54:15.637Z,20.28
2023-04-30T14:56:17.407Z,20.44
2023-04-30T14:58:20.225Z,20.54
2023-04-30T15:00:22.033Z,20.15
2023-04-30T15:02:23.725Z,19.32
2023-04-30T15:04:25.354Z,19.65
2023-04-30T15:06:27.567Z,20.02
2023-04-30T15:08:29.198Z,19.80
2023-04-30T15:10:30.771Z,19.17
2023-04-30T15:12:32.709Z,18.77
2023-04-30T15:14:34.280Z,18.43
2023-04-30T15:16:35.869Z,18.36
2023-04-30T15:18:38.543Z,18.41
2023-04-30T15:20:40.423Z,18.44
2023-04-30T15:22:42.331Z,18.22
2023-04-30T15:24:44.322Z,17.92
2023-04-30T15:26:46.053Z,17.84
2023-04-30T15:28:47.668Z,17.67
2023-04-30T15:30:49.367Z,17.95
2023-04-30T15:32:51.053Z,18.35
2023-04-30T15:34:52.990Z,18.70
2023-04-30T15:36:54.647Z,18.74
2023-04-30T15:38:56.252Z,18.93
2023-04-30T15:40:57.889Z,19.03
2023-04-30T15:42:59.508Z,19.23
2023-04-30T15:45:01.222Z,19.54
2023-04-30T15:47:03.224Z,19.81
2023-04-30T15:49:05.035Z,19.91
2023-04-30T15:51:06.721Z,20.02
2023-04-30T15:53:09.178Z,20.23
2023-04-30T15:55:10.791Z,20.40
2023-04-30T15:57:13.145Z,20.39
2023-04-30T15:59:17.729Z,20.20
2023-04-30T16:01:23.448Z,20.29
2023-04-30T16:03:25.322Z,20.38
2023-04-30T16:05:26.970Z,20.32
2023-04-30T16:07:28.642Z,20.19
2023-04-30T16:09:31.329Z,19.97
2023-04-30T16:11:33.823Z,19.40
2023-04-30T16:13:35.553Z,18.95
2023-04-30T16:15:37.200Z,18.67
2023-04-30T16:17:39.122Z,18.55
2023-04-30T16:19:41.203Z,18.35
2023-04-30T16:21:43.585Z,18.20
2023-04-30T16:23:47.314Z,18.03
2023-04-30T16:25:48.892Z,18.30
2023-04-30T16:27:51.042Z,18.58
2023-04-30T16:29:53.004Z,18.83
2023-04-30T16:31:54.968Z,19.16
2023-04-30T16:33:56.606Z,19.49
2023-04-30T16:35:58.271Z,19.78
2023-04-30T16:37:59.930Z,20.01
2023-04-30T16:40:01.678Z,20.18
2023-04-30T16:42:03.392Z,20.25
2023-04-30T16:44:05.729Z,20.31
2023-04-30T16:46:07.696Z,20.25
2023-04-30T16:48:09.397Z,20.23
2023-04-30T16:50:11.278Z,20.25
2023-04-30T16:52:12.939Z,20.29
2023-04-30T16:54:14.539Z,20.28
2023-04-30T16:56:16.198Z,20.19
2023-04-30T16:58:17.814Z,20.05
2023-04-30T17:00:19.601Z,19.92
2023-04-30T17:02:21.379Z,19.74
2023-04-30T17:04:23.049Z,19.58
2023-04-30T17:06:24.738Z,19.44
2023-04-30T17:08:26.574Z,19.29
2023-04-30T17:10:30.136Z,19.15
2023-04-30T17:12:32.374Z,19.02
2023-04-30T17:14:34.097Z,18.91
2023-04-30T17:16:35.789Z,18.75
2023-04-30T17:18:37.495Z,18.63
2023-04-30T17:20:39.349Z,18.50
2023-04-30T17:22:41.015Z,18.23
2023-04-30T17:24:42.786Z,17.99
2023-04-30T17:26:44.422Z,17.79
2023-04-30T17:28:46.094Z,17.57
2023-04-30T17:30:47.722Z,17.43
2023-04-30T17:32:49.405Z,17.32
2023-04-30T17:34:51.682Z,17.32
2023-04-30T17:36:53.276Z,17.34
2023-04-30T17:38:56.324Z,17.34
2023-04-30T17:40:58.031Z,17.36
2023-04-30T17:43:01.390Z,17.35
2023-04-30T17:45:03.054Z,17.34
2023-04-30T17:47:05.748Z,17.28
2023-04-30T17:49:07.697Z,17.19
2023-04-30T17:51:09.460Z,17.12
2023-04-30T17:53:11.142Z,17.04
2023-04-30T17:55:13.746Z,16.99
2023-04-30T17:57:15.595Z,16.89
2023-04-30T17:59:17.358Z,16.84
2023-04-30T18:01:19.465Z,16.79
2023-04-30T18:03:21.191Z,16.73
2023-04-30T18:05:22.846Z,16.70
2023-04-30T18:07:24.728Z,16.62
2023-04-30T18:09:26.354Z,16.53
2023-04-30T18:11:28.282Z,16.39
2023-04-30T18:13:30.439Z,16.36
2023-04-30T18:15:32.189Z,16.33
2023-04-30T18:17:36.494Z,16.33
2023-04-30T18:19:44.014Z,16.35
2023-04-30T18:21:45.697Z,16.36
2023-04-30T18:23:48.105Z,16.36
2023-04-30T18:25:49.835Z,16.22
2023-04-30T18:27:51.424Z,16.18
2023-04-30T18:29:52.979Z,16.19
2023-04-30T18:31:54.628Z,16.23
2023-04-30T18:33:56.554Z,16.25
2023-04-30T18:36:01.519Z,16.28
2023-04-30T18:38:05.270Z,16.30
2023-04-30T18:40:07.519Z,16.32
2023-04-30T18:42:09.620Z,16.34
2023-04-30T18:44:11.740Z,16.31
2023-04-30T18:46:13.762Z,16.29
2023-04-30T18:48:17.219Z,16.23
2023-04-30T18:50:19.622Z,16.15
2023-04-30T18:52:21.257Z,16.08
2023-04-30T18:54:22.941Z,16.03
2023-04-30T18:56:24.894Z,16.03
2023-04-30T18:58:26.589Z,16.07
2023-04-30T19:00:28.674Z,16.00
2023-04-30T19:02:30.357Z,15.98
2023-04-30T19:04:32.044Z,15.93
2023-04-30T19:06:34.575Z,15.88
2023-04-30T19:08:36.235Z,15.85
2023-04-30T19:10:38.073Z,15.86
2023-04-30T19:12:39.805Z,15.77
2023-04-30T19:14:41.796Z,15.73
2023-04-30T19:16:44.620Z,15.74
2023-04-30T19:18:46.353Z,15.76
2023-04-30T19:20:57.909Z,15.70
2023-04-30T19:22:59.569Z,15.70
2023-04-30T19:25:01.161Z,15.68
2023-04-30T19:27:04.374Z,15.62
2023-04-30T19:29:05.949Z,15.61
2023-04-30T19:31:07.670Z,15.59
2023-04-30T19:33:09.402Z,15.57
2023-04-30T19:35:11.073Z,15.52
2023-04-30T19:37:12.968Z,15.49
2023-04-30T19:39:16.090Z,15.48
2023-04-30T19:41:17.776Z,15.46
2023-04-30T19:43:20.529Z,15.44
2023-04-30T19:45:22.335Z,15.48
2023-04-30T19:47:24.175Z,15.48
2023-04-30T19:49:26.607Z,15.50
2023-04-30T19:51:28.338Z,15.49
2023-04-30T19:53:30.370Z,15.49
2023-04-30T19:55:31.996Z,15.47
2023-04-30T19:57:35.939Z,15.46
2023-04-30T19:59:37.676Z,15.45
2023-04-30T20:01:40.103Z,15.43
2023-04-30T20:03:42.347Z,15.41
2023-04-30T20:05:44.711Z,15.42
2023-04-30T20:07:46.336Z,15.47
2023-04-30T20:09:47.936Z,15.46
2023-04-30T20:11:51.297Z,15.47
2023-04-30T20:13:55.098Z,15.50
2023-04-30T20:15:56.777Z,15.47
2023-04-30T20:17:58.713Z,15.41
2023-04-30T20:20:00.340Z,15.33
2023-04-30T20:22:02.987Z,15.28
2023-04-30T20:24:05.412Z,15.26
2023-04-30T20:26:08.104Z,15.27
2023-04-30T20:28:09.803Z,15.30
2023-04-30T20:30:13.314Z,15.27
2023-04-30T20:32:14.941Z,15.28
2023-04-30T20:34:16.758Z,15.26
2023-04-30T20:36:19.558Z,15.22
2023-04-30T20:38:22.190Z,15.18
2023-04-30T20:40:24.239Z,15.15
2023-04-30T20:42:29.078Z,15.15
2023-04-30T20:44:30.739Z,15.09
2023-04-30T20:46:32.782Z,15.03
2023-04-30T20:48:35.021Z,14.82
2023-04-30T20:50:37.408Z,14.75
2023-04-30T20:52:39.020Z,14.73
2023-04-30T20:54:41.313Z,14.73
2023-04-30T20:56:45.088Z,14.68
2023-04-30T20:58:46.743Z,14.75
2023-04-30T21:00:50.080Z,14.74
2023-04-30T21:02:54.017Z,14.77
2023-04-30T21:04:55.965Z,14.75
2023-04-30T21:06:57.521Z,14.72
2023-04-30T21:08:59.228Z,14.67
2023-04-30T21:11:00.823Z,14.67
2023-04-30T21:13:05.271Z,14.63
2023-04-30T21:15:08.676Z,14.65
2023-04-30T21:17:10.645Z,14.64
2023-04-30T21:19:12.611Z,14.61
2023-04-30T21:21:14.365Z,14.58
2023-04-30T21:23:15.950Z,14.59
2023-04-30T21:25:17.774Z,14.61
2023-04-30T21:27:20.208Z,14.58
2023-04-30T21:29:22.270Z,14.55
2023-04-30T21:31:24.031Z,14.53
2023-04-30T21:33:25.638Z,14.56
2023-04-30T21:35:32.898Z,14.50
2023-04-30T21:37:34.653Z,14.51
2023-04-30T21:39:36.258Z,14.53
2023-04-30T21:41:37.934Z,14.61
2023-04-30T21:43:41.437Z,14.61
2023-04-30T21:45:43.581Z,14.59
2023-04-30T21:47:47.491Z,14.56
2023-04-30T21:49:49.074Z,14.57
2023-04-30T21:51:50.611Z,14.56
2023-04-30T21:53:52.270Z,14.65
2023-04-30T21:55:53.909Z,14.62
2023-04-30T21:57:55.503Z,14.65
2023-04-30T21:59:59.351Z,14.67
2023-04-30T22:02:07.351Z,14.69
2023-04-30T22:04:16.214Z,14.67
2023-04-30T22:06:17.897Z,14.63
2023-04-30T22:08:19.651Z,14.63
2023-04-30T22:10:21.200Z,14.61
2023-04-30T22:12:25.111Z,14.60
2023-04-30T22:14:27.009Z,14.56
2023-04-30T22:16:29.273Z,14.55
2023-04-30T22:18:31.076Z,14.53
2023-04-30T22:20:32.691Z,14.53
2023-04-30T22:22:34.268Z,14.54
2023-04-30T22:24:35.871Z,14.52
2023-04-30T22:26:37.527Z,14.48
2023-04-30T22:28:39.162Z,14.36
2023-04-30T22:30:40.849Z,14.29
2023-04-30T22:32:42.411Z,14.26
2023-04-30T22:34:44.116Z,14.28
2023-04-30T22:36:46.122Z,14.31
2023-04-30T22:38:47.731Z,14.33
2023-04-30T22:40:49.289Z,14.30
2023-04-30T22:42:51.032Z,14.29
2023-04-30T22:44:52.755Z,14.21
2023-04-30T22:46:58.048Z,14.20
2023-04-30T22:49:00.751Z,14.21
2023-04-30T22:51:03.390Z,14.22
2023-04-30T22:53:05.210Z,14.21
2023-04-30T22:55:07.572Z,14.23
2023-04-30T22:57:10.724Z,14.19
2023-04-30T22:59:12.362Z,14.14
2023-04-30T23:01:14.012Z,14.13
2023-04-30T23:03:15.767Z,14.10
2023-04-30T23:05:17.410Z,14.14
2023-04-30T23:07:19.077Z,14.10
2023-04-30T23:09:20.678Z,14.06
2023-04-30T23:11:23.773Z,14.07
2023-04-30T23:13:25.445Z,14.07
2023-04-30T23:15:27.181Z,14.08
2023-04-30T23:17:28.849Z,14.10
2023-04-30T23:19:30.500Z,14.14
2023-04-30T23:21:33.692Z,14.12
2023-04-30T23:23:35.365Z,14.12
2023-04-30T23:25:37.016Z,14.10
2023-04-30T23:27:38.606Z,14.05
2023-04-30T23:29:40.232Z,13.91
2023-04-30T23:31:41.883Z,13.86
2023-04-30T23:33:43.991Z,13.80
2023-04-30T23:35:46.020Z,13.77
2023-04-30T23:37:47.676Z,13.71
2023-04-30T23:39:49.225Z,13.66
2023-04-30T23:41:52.264Z,13.64
2023-04-30T23:43:54.264Z,13.62
2023-04-30T23:45:57.303Z,13.62
2023-04-30T23:47:58.897Z,13.64
2023-04-30T23:50:00.599Z,13.66
2023-04-30T23:52:02.225Z,13.62
2023-04-30T23:54:05.341Z,13.58
2023-04-30T23:56:08.604Z,13.57
2023-04-30T23:58:10.321Z,13.57
